메인 페이지
METAR-TAF:

METAR-TAF

공항 :

로스앤젤레스 국제공항

로스앤젤레스, 캘리포니아, 미국

위도: 33-56-17N, 경도: 118-23-20W, 고도: 38m

현재 날씨관측

예보는 1 시간 6분 전, 20:53시(UTC)에 발표되었습니다.
14kt
온도 26°C
습도 58%
기압 1016 hPa
시정: 16.1km
고도 9500ft 상공 구름 조금
고도 17000ft 상공 구름 조금
고도 30000ft 상공 구름 보통

METAR: KLAX 222053Z 27014KT 10SM FEW095 FEW170 SCT300 26/17 A3001 RMK AO2 SLP161 CB DSNT SE T02560167 58007

시각: 14:59 (21:59 UTC)

예보

예보는 1 시간 0분 전, 20:59시(UTC)에 발표되었습니다.
예보 대상 시간: 22일 21시부터 23일 24시까지 (UTC)
14kt
시정: 10km
고도 10000ft 상공 구름 조금
23일 0600시부터 (UTC)
서남서6kt
시정: 10km
고도 500ft 상공 구름 보통
23일 1100시부터 (UTC)
여러 방향의 바람 3kt
시정: 6.4km
고도 500ft 상공 구름 보통
박무
23일 1700시부터 (UTC)
6kt
시정: 10km
맑음
23일 2000시부터 (UTC)
10kt
시정: 10km
맑음

TAF: KLAX 222059Z 2221/2324 27014KT P6SM FEW100 FM230600 25006KT P6SM SCT005 FM231100 VRB03KT 4SM BR SCT005 FM231700 26006KT P6SM SKC FM232000 26010KT P6SM SKC

4,000개 이상의 공항 관측 자료 및 예보 (METAR 및 TAF 보고).

지도상에서 검색 가능한 기상관측소가 노란 점과 빨간 점으로 표시되어 있습니다.

기상관측소 명을 보려면 표시 위로 마우스를 이동하세요.

날씨 관측과 예보를 보려면 클릭하세요.

지도 변경 : 확대하려면 엑스 표시가 있는 녹색 버튼, 축소하려면 빼기 표시가 있는 녹색 버튼, 다음 페이지의 지도를 보려면 녹색 화살표를 클릭하세요.


METAR-TAF: